Time;durP1;ratioP1;P1;durP2;ratioP2;P2;SDS_P1;SDS_P2;PMS_P1;PMS_P2;Temp;Humidity;BMP_temperature;BMP_pressure;BME280_temperature;BME280_humidity;BME280_pressure;Samples;Min_cycle;Max_cycle;Signal;HPM_P1;HPM_P2
2023/03/12 00:00:39;;;;;;;1.55;1.20;;;-0.20;99.90;;;;;;5095591;28;20036;-67
2023/03/12 00:03:05;;;;;;;2.35;1.25;;;-0.10;99.90;;;;;;5095413;28;20051;-67
2023/03/12 00:05:31;;;;;;;4.22;1.77;;;-0.10;99.90;;;;;;5095331;28;20085;-67
2023/03/12 00:07:58;;;;;;;2.70;1.65;;;-0.10;99.90;;;;;;5095737;28;20040;-67
2023/03/12 00:10:25;;;;;;;2.17;1.02;;;-0.10;99.90;;;;;;5095232;28;20032;-67
2023/03/12 00:12:51;;;;;;;1.95;1.10;;;-0.10;99.90;;;;;;5095538;28;20092;-67
2023/03/12 00:15:17;;;;;;;2.28;1.13;;;-0.20;99.90;;;;;;5095174;28;20474;-67
2023/03/12 00:17:42;;;;;;;1.55;1.00;;;-0.20;99.90;;;;;;5095152;28;20040;-67
2023/03/12 00:20:09;;;;;;;2.40;1.67;;;-0.20;99.90;;;;;;5095517;28;20082;-70
2023/03/12 00:22:34;;;;;;;1.60;1.02;;;-0.30;99.90;;;;;;5095370;28;20399;-66
2023/03/12 00:25:01;;;;;;;3.83;1.70;;;-0.30;99.90;;;;;;5095423;28;20110;-67
2023/03/12 00:27:27;;;;;;;1.98;1.48;;;-0.30;99.90;;;;;;5095334;28;20395;-67
2023/03/12 00:29:53;;;;;;;1.83;1.10;;;-0.30;99.90;;;;;;5095271;28;20028;-67
2023/03/12 00:32:19;;;;;;;5.78;1.35;;;-0.40;99.90;;;;;;5095193;28;20036;-67
2023/03/12 00:34:50;;;;;;;1.10;1.00;;;-0.60;99.90;;;;;;5076727;28;20178;-67
2023/03/12 00:37:15;;;;;;;1.45;1.08;;;-0.40;99.90;;;;;;5095131;28;20036;-67
2023/03/12 00:39:41;;;;;;;2.10;1.55;;;-0.40;99.90;;;;;;5094913;28;20044;-67
2023/03/12 00:42:06;;;;;;;1.17;0.90;;;-0.40;99.90;;;;;;5094711;28;20024;-67
2023/03/12 00:44:32;;;;;;;2.33;1.40;;;-0.40;99.90;;;;;;5094729;28;20084;-67
2023/03/12 00:46:58;;;;;;;1.75;1.05;;;-0.30;99.90;;;;;;5094601;28;20089;-67
2023/03/12 00:49:23;;;;;;;5.30;1.45;;;-0.30;99.90;;;;;;5094671;28;20039;-67
2023/03/12 00:51:49;;;;;;;2.65;1.40;;;-0.30;99.90;;;;;;5076356;28;20494;-67
2023/03/12 00:54:14;;;;;;;1.10;1.00;;;-0.30;99.90;;;;;;5094619;28;20040;-67
2023/03/12 00:56:40;;;;;;;1.88;1.20;;;-0.40;99.90;;;;;;5094413;28;20100;-67
2023/03/12 00:59:05;;;;;;;3.20;1.50;;;-0.40;99.90;;;;;;5094310;28;20036;-67
2023/03/12 01:01:31;;;;;;;1.75;1.20;;;-0.30;99.90;;;;;;5094523;28;20032;-67
2023/03/12 01:03:58;;;;;;;3.70;1.30;;;-0.30;99.90;;;;;;5094158;28;20472;-67
2023/03/12 01:06:24;;;;;;;2.03;1.17;;;-0.30;99.90;;;;;;5075745;28;20123;-67
2023/03/12 01:08:50;;;;;;;3.90;1.08;;;-0.30;99.90;;;;;;5094483;28;20039;-67
2023/03/12 01:11:19;;;;;;;2.22;1.20;;;-0.30;99.90;;;;;;5094218;28;20449;-67
2023/03/12 01:13:46;;;;;;;2.95;1.48;;;-0.30;99.90;;;;;;5094267;28;20074;-67
2023/03/12 01:16:11;;;;;;;2.17;1.20;;;-0.20;99.90;;;;;;5093965;28;20139;-67
2023/03/12 01:18:37;;;;;;;2.22;1.25;;;-0.20;99.90;;;;;;5094295;28;20114;-67
2023/03/12 01:21:04;;;;;;;1.80;1.50;;;-0.20;99.90;;;;;;5094094;28;20040;-67
2023/03/12 01:23:30;;;;;;;2.00;1.52;;;-0.20;99.90;;;;;;5094082;28;20040;-67
2023/03/12 01:25:55;;;;;;;3.63;1.50;;;-0.30;99.90;;;;;;5094141;28;20386;-67
2023/03/12 01:28:22;;;;;;;3.65;1.77;;;-0.30;99.90;;;;;;5094063;28;20048;-67
2023/03/12 01:30:48;;;;;;;2.35;1.60;;;-0.30;99.90;;;;;;5094059;28;20441;-67
2023/03/12 01:33:14;;;;;;;1.52;1.23;;;-0.20;99.90;;;;;;5093952;28;20106;-67
2023/03/12 01:35:40;;;;;;;3.20;1.70;;;-0.30;99.90;;;;;;5093994;28;20487;-67
2023/03/12 01:38:08;;;;;;;4.30;1.63;;;-0.30;99.90;;;;;;5093904;28;20113;-67
2023/03/12 01:40:34;;;;;;;2.25;1.27;;;-0.30;99.90;;;;;;5093817;28;20071;-67
2023/03/12 01:43:33;;;;;;;1.88;1.30;;;-0.30;99.90;;;;;;5093656;28;20086;-67
2023/03/12 01:46:25;;;;;;;3.47;2.10;;;-0.30;99.90;;;;;;5093757;28;20036;-67
2023/03/12 01:48:55;;;;;;;4.72;1.35;;;-0.20;99.90;;;;;;5093423;28;20046;-67
2023/03/12 01:51:24;;;;;;;2.28;1.35;;;-0.30;99.90;;;;;;5093650;28;20040;-67
2023/03/12 01:53:53;;;;;;;3.33;1.58;;;-0.30;99.90;;;;;;5093697;28;20128;-67
2023/03/12 01:56:19;;;;;;;2.13;1.30;;;-0.30;99.90;;;;;;5074975;28;20044;-67
2023/03/12 01:58:51;;;;;;;1.55;1.10;;;-0.30;99.90;;;;;;5093550;28;20040;-67
2023/03/12 02:01:17;;;;;;;3.83;1.38;;;-0.20;99.90;;;;;;5093451;28;20495;-67
2023/03/12 02:03:46;;;;;;;1.92;1.40;;;-0.20;99.90;;;;;;5093063;28;20384;-67
2023/03/12 02:06:14;;;;;;;6.78;1.60;;;-0.20;99.90;;;;;;5092942;28;20056;-67
2023/03/12 02:08:46;;;;;;;2.22;1.48;;;-0.20;99.90;;;;;;5093278;28;20044;-67
2023/03/12 02:11:12;;;;;;;2.85;1.52;;;-0.20;99.90;;;;;;5092609;28;20499;-67
2023/03/12 02:13:38;;;;;;;1.27;1.10;;;-0.10;99.90;;;;;;5093292;28;20097;-67
2023/03/12 02:16:05;;;;;;;2.92;1.45;;;-0.10;99.90;;;;;;5093193;28;20043;-67
2023/03/12 02:18:34;;;;;;;2.58;1.20;;;-0.10;99.90;;;;;;5093239;28;20052;-67
2023/03/12 02:21:20;;;;;;;2.15;1.45;;;0.00;99.90;;;;;;5093196;28;20052;-67
2023/03/12 02:24:15;;;;;;;1.33;1.05;;;0.00;99.90;;;;;;5074776;28;20048;-67
2023/03/12 02:26:41;;;;;;;3.13;1.45;;;0.10;99.90;;;;;;5061582;28;20048;-67
2023/03/12 02:29:09;;;;;;;4.75;1.63;;;0.10;99.90;;;;;;5093131;28;20092;-67
2023/03/12 02:31:41;;;;;;;1.50;1.27;;;0.10;99.90;;;;;;5092982;28;20050;-67
2023/03/12 02:34:08;;;;;;;1.77;1.27;;;0.90;99.90;;;;;;5074710;28;20452;-67
2023/03/12 02:36:34;;;;;;;2.03;1.10;;;0.10;99.90;;;;;;5074468;28;20145;-67
2023/03/12 02:38:59;;;;;;;3.95;1.52;;;0.20;99.90;;;;;;5092993;28;20087;-67
2023/03/12 02:41:30;;;;;;;1.52;1.10;;;0.30;99.90;;;;;;5092913;28;20495;-67
2023/03/12 02:44:13;;;;;;;4.65;1.38;;;0.40;99.90;;;;;;5092954;28;20048;-67
2023/03/12 02:46:47;;;;;;;2.75;1.40;;;0.40;99.90;;;;;;5092872;28;20142;-67
2023/03/12 02:49:14;;;;;;;1.77;1.35;;;0.40;99.90;;;;;;5092808;28;20076;-67
2023/03/12 02:51:42;;;;;;;8.48;1.33;;;0.40;99.90;;;;;;5092532;28;20040;-67
2023/03/12 02:54:08;;;;;;;1.25;0.82;;;0.40;99.90;;;;;;5092887;28;20500;-67
2023/03/12 02:56:35;;;;;;;1.52;1.15;;;0.50;99.90;;;;;;5092873;28;20492;-67
2023/03/12 02:59:01;;;;;;;6.43;1.77;;;0.50;99.90;;;;;;5092766;28;20509;-67
2023/03/12 03:01:27;;;;;;;2.63;1.50;;;0.60;99.90;;;;;;5092812;28;20087;-67
2023/03/12 03:03:53;;;;;;;6.00;1.70;;;0.60;99.90;;;;;;5074290;28;20055;-67
2023/03/12 03:06:19;;;;;;;3.67;1.67;;;0.60;99.90;;;;;;5092244;28;20063;-66
2023/03/12 03:08:45;;;;;;;1.75;1.33;;;0.60;99.90;;;;;;5092611;28;20039;-67
2023/03/12 03:11:11;;;;;;;3.22;1.52;;;2.80;99.90;;;;;;5092385;28;20519;-67
2023/03/12 03:13:37;;;;;;;2.67;1.52;;;0.50;99.90;;;;;;5092485;28;20044;-67
2023/03/12 03:16:03;;;;;;;2.42;1.60;;;0.50;99.90;;;;;;5092488;28;20040;-67
2023/03/12 03:18:29;;;;;;;1.45;1.02;;;0.50;99.90;;;;;;5092602;28;20066;-67
2023/03/12 03:20:57;;;;;;;2.00;1.38;;;0.50;99.90;;;;;;5092325;28;20079;-67
2023/03/12 03:23:23;;;;;;;3.00;1.67;;;0.50;99.90;;;;;;5095158;28;20040;-67
2023/03/12 03:25:49;;;;;;;1.90;1.40;;;0.50;99.90;;;;;;5096359;28;20101;-67
2023/03/12 03:28:14;;;;;;;3.10;1.48;;;0.40;99.90;;;;;;5096024;28;20134;-67
2023/03/12 03:30:40;;;;;;;3.55;1.90;;;0.40;99.90;;;;;;5077698;28;20052;-67
2023/03/12 03:33:06;;;;;;;2.72;1.42;;;0.40;99.90;;;;;;5095972;28;20093;-67
2023/03/12 03:35:33;;;;;;;1.77;1.00;;;0.50;99.90;;;;;;5077746;28;20052;-67
2023/03/12 03:37:59;;;;;;;2.90;1.73;;;0.40;99.90;;;;;;5095700;28;20036;-67
2023/03/12 03:40:24;;;;;;;2.88;1.52;;;0.40;99.90;;;;;;5077633;28;20098;-67
2023/03/12 03:42:50;;;;;;;2.67;1.52;;;0.40;99.90;;;;;;5095974;28;20040;-67
2023/03/12 03:45:16;;;;;;;1.67;1.20;;;0.40;99.90;;;;;;5096005;28;20093;-67
2023/03/12 03:47:42;;;;;;;2.30;1.20;;;0.40;99.90;;;;;;5096002;28;20086;-67
2023/03/12 03:50:08;;;;;;;3.65;1.52;;;0.40;99.90;;;;;;5077826;28;20395;-67
2023/03/12 03:52:34;;;;;;;2.83;1.55;;;0.40;99.90;;;;;;5077690;28;20044;-67
2023/03/12 03:54:59;;;;;;;2.08;1.55;;;0.50;99.90;;;;;;5095604;28;20036;-67
2023/03/12 03:57:26;;;;;;;4.90;1.30;;;0.50;99.90;;;;;;5095681;28;20031;-67
2023/03/12 03:59:52;;;;;;;3.28;1.67;;;0.50;99.90;;;;;;5095745;28;20081;-67
2023/03/12 04:02:18;;;;;;;2.58;1.35;;;0.50;99.90;;;;;;5095624;28;20082;-67
2023/03/12 04:04:43;;;;;;;4.07;1.58;;;0.50;99.90;;;;;;5095722;28;20391;-67
2023/03/12 04:07:09;;;;;;;4.38;2.17;;;0.50;99.90;;;;;;5095247;28;20137;-67
2023/03/12 04:09:35;;;;;;;3.47;2.17;;;0.50;99.90;;;;;;5095537;28;20047;-67
2023/03/12 04:12:01;;;;;;;3.13;1.52;;;0.60;99.90;;;;;;5077239;28;20173;-67
2023/03/12 04:14:27;;;;;;;2.50;1.38;;;0.60;99.90;;;;;;5095450;28;20490;-67
2023/03/12 04:16:52;;;;;;;5.80;1.50;;;0.60;99.90;;;;;;5095473;28;20115;-67
2023/03/12 04:19:18;;;;;;;3.20;1.40;;;0.60;99.90;;;;;;5095348;28;20407;-67
2023/03/12 04:21:44;;;;;;;2.28;1.40;;;0.70;99.90;;;;;;5095064;28;20044;-67
2023/03/12 04:24:14;;;;;;;2.92;1.95;;;0.70;99.90;;;;;;5076797;28;20503;-67
2023/03/12 04:26:39;;;;;;;6.10;1.45;;;0.70;99.90;;;;;;5095258;28;20040;-67
2023/03/12 04:29:05;;;;;;;1.88;1.42;;;0.70;99.90;;;;;;5095148;28;20115;-67
2023/03/12 04:31:31;;;;;;;1.80;1.40;;;0.70;99.90;;;;;;5095181;28;20047;-67
2023/03/12 04:33:56;;;;;;;1.67;1.20;;;0.70;99.90;;;;;;5094412;28;20403;-67
2023/03/12 04:36:22;;;;;;;4.68;1.30;;;0.70;99.90;;;;;;5094765;28;20496;-67
2023/03/12 04:38:48;;;;;;;4.65;2.17;;;0.70;99.90;;;;;;5094880;28;20048;-67
2023/03/12 04:41:15;;;;;;;2.60;1.85;;;0.70;99.90;;;;;;5094941;28;20399;-67
2023/03/12 04:43:40;;;;;;;5.35;1.95;;;0.80;99.90;;;;;;5094793;28;20040;-67
2023/03/12 04:46:07;;;;;;;3.85;1.70;;;0.80;99.90;;;;;;5076541;28;20089;-67
2023/03/12 04:48:34;;;;;;;5.68;2.35;;;0.80;99.90;;;;;;5094845;28;20115;-67
2023/03/12 04:51:00;;;;;;;3.20;1.73;;;0.80;99.90;;;;;;5094758;28;20036;-67
2023/03/12 04:53:26;;;;;;;4.85;1.85;;;0.80;99.90;;;;;;5076263;28;20503;-67
2023/03/12 04:55:51;;;;;;;4.15;2.17;;;0.80;99.90;;;;;;5094620;28;20039;-67
2023/03/12 04:58:18;;;;;;;5.30;2.45;;;0.80;99.90;;;;;;5094249;28;20097;-67
2023/03/12 05:00:44;;;;;;;8.48;2.72;;;0.80;99.90;;;;;;5094628;28;20036;-67
2023/03/12 05:03:10;;;;;;;4.30;1.90;;;0.80;99.20;;;;;;5094250;28;20436;-67
2023/03/12 05:05:35;;;;;;;3.38;2.22;;;0.90;93.90;;;;;;5094132;28;20441;-67
2023/03/12 05:08:02;;;;;;;4.50;1.95;;;0.90;93.70;;;;;;5094165;28;20218;-67
2023/03/12 05:10:28;;;;;;;3.83;1.80;;;0.90;93.40;;;;;;5094288;28;20035;-67
2023/03/12 05:12:53;;;;;;;3.85;1.98;;;0.90;93.30;;;;;;5059501;28;20475;-67
2023/03/12 05:15:19;;;;;;;3.03;1.98;;;0.90;92.10;;;;;;5094287;28;20040;-67
2023/03/12 05:17:45;;;;;;;4.25;2.30;;;0.90;92.60;;;;;;5094315;28;20438;-67
2023/03/12 05:20:12;;;;;;;3.13;2.00;;;0.90;91.80;;;;;;5094199;28;20039;-67
2023/03/12 05:22:38;;;;;;;4.53;2.13;;;0.90;90.20;;;;;;5093791;28;20036;-67
2023/03/12 05:25:05;;;;;;;10.50;3.05;;;0.90;85.50;;;;;;5094145;28;20036;-67
2023/03/12 05:27:31;;;;;;;3.03;1.98;;;1.00;81.30;;;;;;5093834;28;20085;-67
2023/03/12 05:29:56;;;;;;;2.83;1.83;;;1.00;81.90;;;;;;5093736;28;20376;-67
2023/03/12 05:32:22;;;;;;;4.85;1.98;;;1.00;86.10;;;;;;5093808;28;20043;-67
2023/03/12 05:34:47;;;;;;;5.43;1.92;;;1.00;78.90;;;;;;5093789;28;20028;-67
2023/03/12 05:37:13;;;;;;;3.50;1.75;;;1.00;79.10;;;;;;5093956;28;20060;-67
2023/03/12 05:39:45;;;;;;;3.25;1.85;;;1.00;84.30;;;;;;5093537;28;20036;-67
2023/03/12 05:42:11;;;;;;;7.28;1.75;;;1.00;84.10;;;;;;5093847;28;20165;-67
2023/03/12 05:44:37;;;;;;;2.78;1.55;;;1.10;86.60;;;;;;5093864;28;20052;-67
2023/03/12 05:47:03;;;;;;;4.15;2.25;;;1.00;86.40;;;;;;5092708;28;20036;-67
2023/03/12 05:49:28;;;;;;;5.65;1.92;;;1.00;90.30;;;;;;5093686;28;20111;-67
2023/03/12 05:51:54;;;;;;;4.07;2.10;;;1.00;90.00;;;;;;5093364;28;20486;-67
2023/03/12 05:54:20;;;;;;;6.00;2.25;;;0.90;88.00;;;;;;5092912;28;20134;-67
2023/03/12 05:56:45;;;;;;;2.17;1.80;;;0.90;91.90;;;;;;5093294;28;20044;-67
2023/03/12 05:59:11;;;;;;;5.75;2.40;;;0.90;92.30;;;;;;5093199;28;20070;-67
2023/03/12 06:01:37;;;;;;;3.30;1.90;;;0.90;94.10;;;;;;5093530;28;20039;-67
2023/03/12 06:04:03;;;;;;;6.55;3.28;;;0.80;95.20;;;;;;5093027;28;20036;-67
2023/03/12 06:06:30;;;;;;;8.68;2.42;;;0.80;95.00;;;;;;5092988;28;20054;-67
2023/03/12 06:08:56;;;;;;;6.20;2.00;;;0.90;96.60;;;;;;5075062;28;20459;-67
2023/03/12 06:11:22;;;;;;;4.22;2.58;;;0.80;96.30;;;;;;5093308;28;20047;-67
2023/03/12 06:13:47;;;;;;;3.58;2.30;;;0.80;97.30;;;;;;5093041;28;20433;-67
2023/03/12 06:16:22;;;;;;;8.57;2.75;;;0.90;97.60;;;;;;5093203;28;20130;-67
2023/03/12 06:18:51;;;;;;;4.97;2.72;;;0.90;97.20;;;;;;5093054;28;20115;-67
2023/03/12 06:21:20;;;;;;;2.60;1.88;;;0.90;97.70;;;;;;5093138;28;20044;-67
2023/03/12 06:23:47;;;;;;;3.70;2.60;;;0.90;97.80;;;;;;5093090;28;20082;-67
2023/03/12 06:26:13;;;;;;;3.70;1.95;;;0.90;96.40;;;;;;5092803;28;20107;-67
2023/03/12 06:28:39;;;;;;;5.50;2.78;;;1.00;96.40;;;;;;5093190;28;20129;-67
2023/03/12 06:31:05;;;;;;;5.63;2.78;;;1.00;95.60;;;;;;5093006;28;20124;-67
2023/03/12 06:33:31;;;;;;;4.82;2.40;;;1.00;94.30;;;;;;5092953;28;20181;-67
2023/03/12 06:35:59;;;;;;;4.93;2.60;;;1.00;93.80;;;;;;5093021;28;20127;-67
2023/03/12 06:38:25;;;;;;;3.28;2.33;;;1.10;93.40;;;;;;5092672;28;20040;-67
2023/03/12 06:40:58;;;;;;;5.82;2.58;;;1.10;92.30;;;;;;5058022;28;20055;-67
2023/03/12 06:43:26;;;;;;;5.28;2.78;;;1.10;92.60;;;;;;5092753;28;20062;-67
2023/03/12 06:45:54;;;;;;;3.55;2.22;;;1.20;90.60;;;;;;5092831;28;20038;-67
2023/03/12 06:48:20;;;;;;;10.38;2.65;;;1.20;86.80;;;;;;5092161;28;20036;-67
2023/03/12 06:50:46;;;;;;;4.95;2.55;;;1.30;81.90;;;;;;5092834;28;20093;-67
2023/03/12 06:53:11;;;;;;;8.05;3.30;;;1.30;81.20;;;;;;5092808;28;20039;-67
2023/03/12 06:55:37;;;;;;;4.18;2.75;;;1.30;75.60;;;;;;5092941;28;20079;-67
2023/03/12 06:58:03;;;;;;;4.75;2.45;;;1.40;46.20;;;;;;5094679;28;20036;-67
2023/03/12 07:00:30;;;;;;;5.05;2.45;;;1.40;59.00;;;;;;5097031;28;20032;-67
2023/03/12 07:02:56;;;;;;;6.30;2.78;;;1.40;53.20;;;;;;5095757;28;20050;-67
2023/03/12 07:05:22;;;;;;;5.22;2.42;;;1.50;45.00;;;;;;5096670;28;20143;-67
2023/03/12 07:07:48;;;;;;;4.50;2.55;;;1.50;30.10;;;;;;5096550;28;20040;-66
2023/03/12 07:10:14;;;;;;;4.57;2.75;;;1.60;16.40;;;;;;5096752;28;20536;-66
2023/03/12 07:12:40;;;;;;;5.75;2.45;;;1.70;9.20;;;;;;5096734;28;20443;-67
2023/03/12 07:15:06;;;;;;;4.13;2.63;;;1.70;16.00;;;;;;5078131;28;20131;-67
2023/03/12 07:17:32;;;;;;;3.40;2.33;;;1.70;16.30;;;;;;5078484;28;20078;-67
2023/03/12 07:19:57;;;;;;;6.82;2.88;;;1.70;12.40;;;;;;5096598;28;20036;-68
2023/03/12 07:22:23;;;;;;;3.05;2.38;;;1.70;5.70;;;;;;5096107;28;20402;-67
2023/03/12 07:24:50;;;;;;;6.60;2.38;;;1.70;15.50;;;;;;5096516;28;20111;-74
2023/03/12 07:27:16;;;;;;;4.35;2.65;;;1.70;15.30;;;;;;5096495;28;20040;-66
2023/03/12 07:29:42;;;;;;;4.03;3.15;;;1.70;39.30;;;;;;5096224;28;20047;-68
2023/03/12 07:32:07;;;;;;;6.63;3.17;;;1.70;63.40;;;;;;5096450;28;20040;-67
2023/03/12 07:34:33;;;;;;;6.97;3.58;;;1.60;82.70;;;;;;5096428;28;20036;-67
2023/03/12 07:36:59;;;;;;;7.85;2.80;;;1.60;93.20;;;;;;5096020;28;20040;-67
2023/03/12 07:39:25;;;;;;;4.95;2.47;;;1.50;97.90;;;;;;5095993;28;20044;-67
2023/03/12 07:41:50;;;;;;;1.38;1.25;;;1.50;99.90;;;;;;5096080;28;20411;-68
2023/03/12 07:44:16;;;;;;;5.13;3.00;;;1.50;99.90;;;;;;5096161;28;20036;-67
2023/03/12 07:46:42;;;;;;;4.72;2.67;;;1.40;99.90;;;;;;5096212;28;20032;-68
2023/03/12 07:49:07;;;;;;;6.10;2.67;;;1.30;99.90;;;;;;5096138;28;20084;-67
2023/03/12 07:51:33;;;;;;;3.95;2.92;;;1.30;99.90;;;;;;5095730;28;20483;-68
2023/03/12 07:53:59;;;;;;;7.45;2.40;;;1.30;99.90;;;;;;5096070;28;20036;-67
2023/03/12 07:56:24;;;;;;;4.70;2.65;;;1.20;99.90;;;;;;5095411;28;20067;-67
2023/03/12 07:58:50;;;;;;;6.47;2.90;;;1.30;99.90;;;;;;5077602;28;20047;-68
2023/03/12 08:01:15;;;;;;;6.95;3.00;;;1.30;99.90;;;;;;5095929;28;20040;-68
2023/03/12 08:03:41;;;;;;;4.97;3.30;;;1.30;99.90;;;;;;5095428;28;20454;-68
2023/03/12 08:06:07;;;;;;;6.05;2.72;;;1.30;99.90;;;;;;5095147;28;20047;-68
2023/03/12 08:08:34;;;;;;;3.22;2.70;;;1.30;99.90;;;;;;5094288;28;20032;-68
2023/03/12 08:11:02;;;;;;;10.27;5.13;;;1.30;99.90;;;;;;5077083;28;20058;-68
2023/03/12 08:13:27;;;;;;;7.63;3.85;;;1.20;99.90;;;;;;5095706;28;20039;-69
2023/03/12 08:15:56;;;;;;;4.60;2.70;;;1.30;99.90;;;;;;5095322;28;20040;-70
2023/03/12 08:18:23;;;;;;;4.88;2.42;;;1.30;99.90;;;;;;5077131;28;20048;-69
2023/03/12 08:20:50;;;;;;;7.68;2.95;;;1.30;99.90;;;;;;5095586;28;20048;-69
2023/03/12 08:23:16;;;;;;;4.47;2.58;;;1.30;99.90;;;;;;5095349;28;20040;-71
2023/03/12 08:25:47;;;;;;;10.52;3.50;;;1.30;99.90;;;;;;5095079;28;20032;-68
2023/03/12 08:28:14;;;;;;;5.05;3.15;;;1.40;99.90;;;;;;5095401;28;20081;-69
2023/03/12 08:30:44;;;;;;;6.28;3.10;;;1.40;99.90;;;;;;5095386;28;20043;-69
2023/03/12 08:33:10;;;;;;;5.55;2.63;;;1.50;99.90;;;;;;5095360;28;20503;-68
2023/03/12 08:35:36;;;;;;;4.07;2.83;;;1.50;99.90;;;;;;5095298;28;20071;-68
2023/03/12 08:38:01;;;;;;;9.30;3.15;;;1.50;99.90;;;;;;5094854;28;20040;-68
2023/03/12 08:40:27;;;;;;;3.88;3.03;;;1.50;99.90;;;;;;5095187;28;20047;-68
2023/03/12 08:42:52;;;;;;;6.18;3.40;;;1.50;99.90;;;;;;5094568;28;20044;-68
2023/03/12 08:45:18;;;;;;;3.85;2.72;;;1.50;99.90;;;;;;5095063;28;20494;-76
2023/03/12 08:47:44;;;;;;;5.45;2.80;;;1.50;99.90;;;;;;5076504;28;20118;-68
2023/03/12 08:50:13;;;;;;;7.53;2.65;;;1.50;99.90;;;;;;5076653;28;20084;-68
2023/03/12 08:52:38;;;;;;;4.80;3.10;;;1.60;99.90;;;;;;5076509;28;20040;-68
2023/03/12 08:55:04;;;;;;;3.90;2.88;;;1.60;99.90;;;;;;5094910;28;20375;-68
2023/03/12 08:57:31;;;;;;;4.15;2.25;;;1.60;99.90;;;;;;5094931;28;20058;-68
2023/03/12 08:59:57;;;;;;;4.75;3.17;;;1.60;99.90;;;;;;5094788;28;20445;-68
2023/03/12 09:02:23;;;;;;;7.45;2.97;;;1.70;99.90;;;;;;5076292;28;20089;-69
2023/03/12 09:04:49;;;;;;;5.22;3.08;;;1.70;99.90;;;;;;5076671;28;20040;-72
2023/03/12 09:07:18;;;;;;;6.07;3.08;;;1.70;99.90;;;;;;5094181;28;20052;-68
2023/03/12 09:09:44;;;;;;;4.25;2.90;;;1.70;99.90;;;;;;5094324;28;20072;-70
2023/03/12 09:12:10;;;;;;;5.85;3.53;;;1.70;99.90;;;;;;5075912;28;20040;-68
2023/03/12 09:14:36;;;;;;;4.07;2.95;;;1.80;99.90;;;;;;5094126;28;20119;-69
2023/03/12 09:17:02;;;;;;;6.38;3.58;;;1.70;99.90;;;;;;5094438;28;20084;-69
2023/03/12 09:19:27;;;;;;;4.55;2.42;;;1.70;99.90;;;;;;5094184;28;20391;-69
2023/03/12 09:21:53;;;;;;;3.08;2.33;;;1.60;99.90;;;;;;5094235;28;20028;-69
2023/03/12 09:24:19;;;;;;;3.72;2.70;;;1.70;99.90;;;;;;5094180;28;20083;-69
2023/03/12 09:26:46;;;;;;;7.05;3.30;;;1.70;99.90;;;;;;5094213;28;20410;-69
2023/03/12 09:29:12;;;;;;;8.18;3.28;;;1.60;99.90;;;;;;5093836;28;20055;-69
2023/03/12 09:31:38;;;;;;;3.35;2.25;;;1.60;99.90;;;;;;5093876;28;20115;-69
2023/03/12 09:34:03;;;;;;;9.20;3.78;;;1.60;99.90;;;;;;5094133;28;20047;-69
2023/03/12 09:36:29;;;;;;;5.85;3.60;;;1.60;99.90;;;;;;5094197;28;20074;-69
2023/03/12 09:38:55;;;;;;;5.40;3.90;;;1.70;99.90;;;;;;5094008;28;20046;-69
2023/03/12 09:41:26;;;;;;;5.47;3.28;;;1.60;99.90;;;;;;5093650;28;20467;-69
2023/03/12 09:44:06;;;;;;;6.30;3.30;;;1.50;99.90;;;;;;5093478;28;20044;-69
2023/03/12 09:46:48;;;;;;;6.93;4.32;;;1.50;99.90;;;;;;5093949;28;20047;-69
2023/03/12 09:49:31;;;;;;;6.50;3.40;;;1.50;99.90;;;;;;5075458;28;20055;-69
2023/03/12 09:51:58;;;;;;;5.47;3.53;;;1.60;99.90;;;;;;5093469;28;20047;-69
2023/03/12 09:54:41;;;;;;;4.95;3.22;;;1.60;99.90;;;;;;5093735;28;20036;-69
2023/03/12 09:57:22;;;;;;;5.20;3.22;;;1.60;99.90;;;;;;5074993;28;20055;-69
2023/03/12 09:59:49;;;;;;;8.50;4.15;;;1.70;99.90;;;;;;5093688;28;20036;-69
2023/03/12 10:02:30;;;;;;;8.98;5.03;;;1.70;99.90;;;;;;5093580;28;20068;-69
2023/03/12 10:05:08;;;;;;;5.85;3.97;;;1.70;99.90;;;;;;5074992;28;20080;-69
2023/03/12 10:07:45;;;;;;;6.22;4.13;;;1.90;99.90;;;;;;5093542;28;20498;-69
2023/03/12 10:10:54;;;;;;;5.10;3.75;;;2.10;99.90;;;;;;5093487;28;20047;-69
2023/03/12 10:13:26;;;;;;;5.63;3.25;;;1.90;99.90;;;;;;5054847;28;20135;-70
2023/03/12 10:16:18;;;;;;;9.35;5.97;;;1.80;99.90;;;;;;5093227;28;20388;-69
2023/03/12 10:19:22;;;;;;;6.43;5.28;;;1.80;99.90;;;;;;5074937;28;20074;-69
2023/03/12 10:22:28;;;;;;;10.30;4.97;;;1.90;99.90;;;;;;5062071;28;20093;-69
2023/03/12 10:25:14;;;;;;;5.75;3.60;;;1.90;99.90;;;;;;5062694;28;20056;-69
2023/03/12 10:27:41;;;;;;;9.93;6.57;;;1.90;99.90;;;;;;5093258;28;20407;-69
2023/03/12 10:30:20;;;;;;;8.75;7.18;;;1.80;99.90;;;;;;5093221;28;20032;-69
2023/03/12 10:32:54;;;;;;;7.45;4.82;;;1.90;99.90;;;;;;5092537;28;20051;-69
2023/03/12 10:35:25;;;;;;;7.32;5.00;;;2.20;99.90;;;;;;5092980;28;20044;-69
2023/03/12 10:37:59;;;;;;;6.40;4.43;;;1.90;99.90;;;;;;5093162;28;20054;-69
2023/03/12 10:40:28;;;;;;;10.63;6.53;;;2.00;99.90;;;;;;5074816;28;20061;-69
2023/03/12 10:42:54;;;;;;;5.38;4.20;;;1.80;99.90;;;;;;5092968;28;20040;-69
2023/03/12 10:45:33;;;;;;;9.82;6.22;;;2.10;99.90;;;;;;5093082;28;20040;-69
2023/03/12 10:48:02;;;;;;;7.13;5.38;;;2.00;99.90;;;;;;5093054;28;20036;-69
2023/03/12 10:50:31;;;;;;;6.38;5.13;;;2.30;99.90;;;;;;5074385;28;20040;-69
2023/03/12 10:53:21;;;;;;;8.55;5.32;;;1.90;99.90;;;;;;5074333;28;20158;-70
2023/03/12 10:56:05;;;;;;;10.27;6.22;;;2.00;99.90;;;;;;5080501;28;20052;-69
2023/03/12 10:58:52;;;;;;;8.82;5.45;;;2.00;99.90;;;;;;5074329;28;20468;-69
2023/03/12 11:01:19;;;;;;;6.22;4.85;;;2.10;99.90;;;;;;5092475;28;20504;-69
2023/03/12 11:03:45;;;;;;;7.95;5.05;;;2.10;99.90;;;;;;5092831;28;20399;-69
2023/03/12 11:06:24;;;;;;;3.65;2.80;;;2.10;99.90;;;;;;5092447;28;20048;-68
2023/03/12 11:09:04;;;;;;;5.38;4.50;;;2.20;99.90;;;;;;5074262;28;20131;-68
2023/03/12 11:11:32;;;;;;;6.20;4.72;;;2.20;99.90;;;;;;5092815;28;20399;-68
2023/03/12 11:14:11;;;;;;;9.85;5.28;;;2.30;99.90;;;;;;5092434;28;20510;-68
2023/03/12 11:16:37;;;;;;;7.47;4.65;;;2.30;99.90;;;;;;5092643;28;20054;-68
2023/03/12 11:19:04;;;;;;;10.68;4.40;;;2.40;99.90;;;;;;5092609;28;20043;-68
2023/03/12 11:21:34;;;;;;;8.30;4.30;;;2.40;99.90;;;;;;5092459;28;20051;-74
2023/03/12 11:24:06;;;;;;;7.93;5.47;;;2.40;99.90;;;;;;5074295;28;20513;-68
2023/03/12 11:26:55;;;;;;;9.32;5.50;;;2.40;99.90;;;;;;5092447;28;20582;-74
2023/03/12 11:29:47;;;;;;;8.13;5.03;;;2.60;99.90;;;;;;5074541;28;20560;-68
2023/03/12 11:32:28;;;;;;;;;;;2.70;99.90;;;;;;5093070;28;20043;-68
2023/03/12 11:34:54;;;;;;;6.95;5.22;;;2.70;99.90;;;;;;5074169;28;20034;-67
2023/03/12 11:37:43;;;;;;;6.32;4.13;;;2.80;99.90;;;;;;5092601;28;20071;-67
2023/03/12 11:40:17;;;;;;;5.78;4.20;;;2.90;99.90;;;;;;5091921;28;20047;-67
2023/03/12 11:43:03;;;;;;;6.97;4.55;;;2.90;99.90;;;;;;5092448;28;20044;-69
2023/03/12 11:45:35;;;;;;;6.60;3.67;;;3.10;99.90;;;;;;5095960;28;20044;-67
2023/03/12 11:48:09;;;;;;;;;;;3.20;99.90;;;;;;5096656;28;20530;-67
2023/03/12 11:51:07;;;;;;;5.15;3.72;;;3.20;99.90;;;;;;5095858;28;20333;-68
2023/03/12 11:54:03;;;;;;;8.43;4.07;;;3.30;99.90;;;;;;5095813;28;20407;-67
2023/03/12 11:56:39;;;;;;;5.53;3.83;;;3.50;99.90;;;;;;5095696;28;20040;-68
2023/03/12 11:59:08;;;;;;;4.97;3.67;;;3.60;99.90;;;;;;5095919;28;20475;-67
2023/03/12 12:01:42;;;;;;;6.60;3.88;;;3.60;99.90;;;;;;5095313;28;20050;-69
2023/03/12 12:04:29;;;;;;;6.68;4.28;;;3.70;99.90;;;;;;5077294;28;20076;-68
2023/03/12 12:07:28;;;;;;;5.10;4.43;;;3.70;99.90;;;;;;5077309;28;20060;-68
2023/03/12 12:10:14;;;;;;;5.50;3.88;;;3.70;99.90;;;;;;5095781;28;20036;-68
2023/03/12 12:12:58;;;;;;;7.28;4.13;;;3.80;99.90;;;;;;5095780;28;20038;-68
2023/03/12 12:15:54;;;;;;;9.85;3.85;;;3.90;99.90;;;;;;5095707;28;20052;-68
2023/03/12 12:18:57;;;;;;;7.75;4.53;;;4.00;99.90;;;;;;5095587;28;20076;-68
2023/03/12 12:21:31;;;;;;;6.88;4.20;;;4.00;99.90;;;;;;5095513;28;20044;-68
2023/03/12 12:24:23;;;;;;;6.03;3.70;;;4.10;99.90;;;;;;5095468;28;20044;-68
2023/03/12 12:27:09;;;;;;;;;;;4.10;99.90;;;;;;5091654;28;20048;-67
2023/03/12 12:30:10;;;;;;;5.45;3.42;;;4.20;99.90;;;;;;5059647;28;19919;-68
2023/03/12 12:32:44;;;;;;;6.10;3.77;;;4.30;99.90;;;;;;5077226;28;20043;-68
2023/03/12 12:35:18;;;;;;;6.78;3.70;;;4.40;99.90;;;;;;5095309;28;20051;-72
2023/03/12 12:38:08;;;;;;;5.18;2.88;;;4.50;99.90;;;;;;5095351;28;20032;-71
2023/03/12 12:40:41;;;;;;;11.40;3.33;;;4.60;99.90;;;;;;5076880;28;20040;-68
2023/03/12 12:43:27;;;;;;;5.32;3.33;;;4.70;99.90;;;;;;5076982;28;20044;-69
2023/03/12 12:46:21;;;;;;;8.32;3.70;;;4.90;99.90;;;;;;5094898;28;20375;-69
2023/03/12 12:48:58;;;;;;;7.93;4.03;;;5.00;99.90;;;;;;5063526;28;20096;-69
2023/03/12 12:51:29;;;;;;;6.70;3.88;;;5.00;99.90;;;;;;5076825;28;20076;-70
2023/03/12 12:54:00;;;;;;;10.55;3.78;;;5.10;99.90;;;;;;5094955;28;20040;-69
2023/03/12 12:56:42;;;;;;;;;;;5.20;99.90;;;;;;5094767;28;20089;-69
2023/03/12 12:59:26;;;;;;;9.43;3.65;;;5.30;99.90;;;;;;5094653;28;19916;-71
2023/03/12 13:01:54;;;;;;;8.00;4.38;;;5.40;99.90;;;;;;5076350;28;20441;-68
2023/03/12 13:04:36;;;;;;;4.95;3.20;;;5.50;99.90;;;;;;5094626;28;20051;-67
2023/03/12 13:07:12;;;;;;;6.03;3.08;;;5.60;99.90;;;;;;5094295;28;20177;-67
2023/03/12 13:09:51;;;;;;;4.35;3.30;;;5.70;99.90;;;;;;5094646;28;20174;-67